PPR-pyyntö

Ennakkolupa on pakollinen lentoonlähtöjä ja laskuja varten. Pyydä ennakkolupa tästä.

Laskukierrosvaraus

Tee ensin PPR-pyyntö, sitten vasta laskukierrosvaraus. Hinta 5 € / 15 min.

Aerodrome Info

Updated 19 JAN 2018 17:09 LT

  • SNOW ON RWY, TWY and APN
  • PLOUGHING DONE.
  • TAXI J-M ALLOWED DUE TO ICE ON APN 2
  • No duty officer in tower, no lights available.

Contact duty officer at +358 20 7545 129 for more information.

Weather


Helsinki Malmi lentokenttä
AWS ILHF 192240Z AUTO 02001KT 9999 OVC012 M02/M03 Q1008=

METAR EFHK 192250Z 01003KT 5000 BR SCT004 BKN015 M03/M03 Q1008 TEMPO BKN004=
TAF EFHK 192027Z 1921/2021 02005KT 8000 SCT005 BKN016 TEMPO 1921/2009 6000 -SN BKN004 PROB30 TEMPO 1921/2009 3000 BR=

Helsinki-Malmin lentoasema

Tervetuloa Helsinki-Malmin lentokentälle

Malmin lentokenttäyhdistys ry on yleishyödyllinen yhdistys, joka toimii Suomen vilkkaimman yleisilmailukentän, Helsinki-Malmin operaattorina. Yhdistyksen toiminnassa ovat mukana kentällä toimivat yhteisöt sekä suuri joukko yleisilmailijoita.

Malmin lentokentän toiminta rahoitetaan jäsen- ja kausikorttimaksuin. Ole mukana jatkamassa Malmin lentotoimintaa ja liity jäseneksi!